Map

Track Data

SID SEASON NUMBER BASIN SUBBASIN NAME ISO_TIME NATURE LAT LON WMO_WIND WMO_PRES WMO_AGENCY TRACK_TYPE DIST2LAND LANDFALL IFLAG USA_AGENCY USA_ATCF_ID USA_LAT USA_LON USA_RECORD USA_STATUS USA_WIND USA_PRES USA_SSHS USA_R34_NE USA_R34_SE USA_R34_SW USA_R34_NW USA_R50_NE USA_R50_SE USA_R50_SW USA_R50_NW USA_R64_NE USA_R64_SE USA_R64_SW USA_R64_NW USA_POCI USA_ROCI USA_RMW USA_EYE TOKYO_LAT TOKYO_LON TOKYO_GRADE TOKYO_WIND TOKYO_PRES TOKYO_R50_DIR TOKYO_R50_LONG TOKYO_R50_SHORT TOKYO_R30_DIR TOKYO_R30_LONG TOKYO_R30_SHORT TOKYO_LAND CMA_LAT CMA_LON CMA_CAT CMA_WIND CMA_PRES HKO_LAT HKO_LON HKO_CAT HKO_WIND HKO_PRES NEWDELHI_LAT NEWDELHI_LON NEWDELHI_GRADE NEWDELHI_WIND NEWDELHI_PRES NEWDELHI_CI NEWDELHI_DP NEWDELHI_POCI REUNION_LAT REUNION_LON REUNION_TYPE REUNION_WIND REUNION_PRES REUNION_TNUM REUNION_CI REUNION_RMW REUNION_R34_NE REUNION_R34_SE REUNION_R34_SW REUNION_R34_NW REUNION_R50_NE REUNION_R50_SE REUNION_R50_SW REUNION_R50_NW REUNION_R64_NE REUNION_R64_SE REUNION_R64_SW REUNION_R64_NW BOM_LAT BOM_LON BOM_TYPE BOM_WIND BOM_PRES BOM_TNUM BOM_CI BOM_RMW BOM_R34_NE BOM_R34_SE BOM_R34_SW BOM_R34_NW BOM_R50_NE BOM_R50_SE BOM_R50_SW BOM_R50_NW BOM_R64_NE BOM_R64_SE BOM_R64_SW BOM_R64_NW BOM_ROCI BOM_POCI BOM_EYE BOM_POS_METHOD BOM_PRES_METHOD NADI_LAT NADI_LON NADI_CAT NADI_WIND NADI_PRES WELLINGTON_LAT WELLINGTON_LON WELLINGTON_WIND WELLINGTON_PRES DS824_LAT DS824_LON DS824_STAGE DS824_WIND DS824_PRES TD9636_LAT TD9636_LON TD9636_STAGE TD9636_WIND TD9636_PRES TD9635_LAT TD9635_LON TD9635_WIND TD9635_PRES TD9635_ROCI NEUMANN_LAT NEUMANN_LON NEUMANN_CLASS NEUMANN_WIND NEUMANN_PRES MLC_LAT MLC_LON MLC_CLASS MLC_WIND MLC_PRES USA_GUST BOM_GUST BOM_GUST_PER REUNION_GUST REUNION_GUST_PER USA_SEAHGT USA_SEARAD_NE USA_SEARAD_SE USA_SEARAD_SW USA_SEARAD_NW STORM_SPEED STORM_DIR
1992263N05175 1992 91 WP MM VAL 1992-09-19 00:00:00 NR 4.80000 174.800 main 2144 2129 O_____________ jtwc_wp WP201992 4.80000 174.800 15 -1 7 286
1992263N05175 1992 91 WP MM VAL 1992-09-19 03:00:00 NR 4.89754 174.450 main 2129 2105 P_____________ WP201992 4.89754 174.450 15 -1 7 286
1992263N05175 1992 91 WP MM VAL 1992-09-19 06:00:00 NR 5.00000 174.100 main 2105 2090 O_____________ jtwc_wp WP201992 5.00000 174.100 15 -1 7 287
1992263N05175 1992 91 WP MM VAL 1992-09-19 09:00:00 NR 5.10748 173.750 main 2090 2068 P_____________ WP201992 5.10748 173.750 15 -1 7 286
1992263N05175 1992 91 WP MM VAL 1992-09-19 12:00:00 NR 5.20000 173.400 main 2068 2053 O_____________ jtwc_wp WP201992 5.20000 173.400 15 -1 7 283
1992263N05175 1992 91 WP MM VAL 1992-09-19 15:00:00 NR 5.26498 173.050 main 2054 2025 P_____________ WP201992 5.26498 173.050 15 -1 7 278
1992263N05175 1992 91 WP MM VAL 1992-09-19 18:00:00 NR 5.30000 172.700 main 2025 2003 O_____________ jtwc_wp WP201992 5.30000 172.700 15 -1 7 273
1992263N05175 1992 91 WP MM VAL 1992-09-19 21:00:00 NR 5.30748 172.350 main 1996 1975 P_____________ WP201992 5.30748 172.350 15 -1 7 270
1992263N05175 1992 91 WP MM VAL 1992-09-20 00:00:00 NR 5.30000 172.000 main 1975 1954 O_____________ jtwc_wp WP201992 5.30000 172.000 15 -1 7 268
1992263N05175 1992 91 WP MM VAL 1992-09-20 03:00:00 NR 5.28495 171.665 main 1954 1927 P_____________ WP201992 5.28495 171.665 17 -1 7 270
1992263N05175 1992 91 WP MM VAL 1992-09-20 06:00:00 NR 5.30000 171.300 main 1927 1900 O_____________ jtwc_wp WP201992 5.30000 171.300 20 -1 8 274
1992263N05175 1992 91 WP MM VAL 1992-09-20 09:00:00 NR 5.34750 170.865 main 1900 1884 P_____________ WP201992 5.34750 170.865 20 -1 9 283
1992263N05175 1992 91 WP MM VAL 1992-09-20 12:00:00 NR 5.50000 170.400 main 1887 1880 O_____________ jtwc_wp WP201992 5.50000 170.400 20 -1 10 298
1992263N05175 1992 91 WP MM VAL 1992-09-20 15:00:00 NR 5.81241 169.972 main 1890 1884 P_____________ WP201992 5.81241 169.972 20 -1 11 308
1992263N05175 1992 91 WP MM VAL 1992-09-20 18:00:00 NR 6.20000 169.500 main 1899 1894 O_____________ jtwc_wp WP201992 6.20000 169.500 20 -1 13 305
1992263N05175 1992 91 WP MM VAL 1992-09-20 21:00:00 NR 6.53492 168.945 main 1896 1896 P_____________ WP201992 6.53492 168.945 20 -1 14 300
1992263N05175 1992 91 WP MM VAL 1992-09-21 00:00:00 NR 6.90000 168.300 main 1905 1900 O_____________ jtwc_wp WP201992 6.90000 168.300 20 -1 16 300
1992263N05175 1992 91 WP MM VAL 1992-09-21 03:00:00 NR 7.33502 167.565 main 1914 1914 P_____________ WP201992 7.33502 167.565 20 -1 17 301
1992263N05175 1992 91 WP MM VAL 1992-09-21 06:00:00 NR 7.80000 166.800 main 1933 1933 O_____________ jtwc_wp WP201992 7.80000 166.800 20 -1 17 302
1992263N05175 1992 91 WP MM VAL 1992-09-21 09:00:00 NR 8.25741 166.077 main 1961 1957 P_____________ WP201992 8.25741 166.077 20 -1 17 303
1992263N05175 1992 91 WP MM VAL 1992-09-21 12:00:00 NR 8.70000 165.400 main 1968 1961 O_____________ jtwc_wp WP201992 8.70000 165.400 20 -1 16 303
1992263N05175 1992 91 WP MM VAL 1992-09-21 15:00:00 NR 9.10739 164.770 main 1967 1960 P_____________ WP201992 9.10739 164.770 20 -1 14 304
1992263N05175 1992 91 WP MM VAL 1992-09-21 18:00:00 NR 9.50000 164.200 main 1963 1955 O_____________ jtwc_wp WP201992 9.50000 164.200 20 -1 14 307
1992263N05175 1992 91 WP MM VAL 1992-09-21 21:00:00 NR 9.91488 163.677 main 1962 1955 P_____________ WP201992 9.91488 163.677 20 -1 13 309
1992263N05175 1992 91 WP MM VAL 1992-09-22 00:00:00 NR 10.3000 163.200 main 1964 1955 O_____________ jtwc_wp WP201992 10.3000 163.200 20 -1 12 307
1992263N05175 1992 91 WP MM VAL 1992-09-22 03:00:00 NR 10.6074 162.742 main 1957 1952 P_____________ WP201992 10.6074 162.742 20 -1 11 304
1992263N05175 1992 91 WP MM VAL 1992-09-22 06:00:00 NR 10.9000 162.300 main 1957 1954 O_____________ jtwc_wp WP201992 10.9000 162.300 20 -1 11 306
1992263N05175 1992 91 WP MM VAL 1992-09-22 09:00:00 NR 11.2499 161.850 main 1953 1953 P_____________ WP201992 11.2499 161.850 20 -1 11 308
1992263N05175 1992 91 WP MM VAL 1992-09-22 12:00:00 NR 11.6000 161.400 main 1967 1961 O_____________ jtwc_wp WP201992 11.6000 161.400 20 -1 11 307
1992263N05175 1992 91 WP MM VAL 1992-09-22 15:00:00 NR 11.9074 160.950 main 1966 1966 P_____________ WP201992 11.9074 160.950 20 -1 11 304
1992263N05175 1992 91 WP MM VAL 1992-09-22 18:00:00 NR 12.2000 160.500 main 1972 1967 O_____________ jtwc_wp WP201992 12.2000 160.500 20 -1 11 303
1992263N05175 1992 91 WP MM VAL 1992-09-22 21:00:00 NR 12.4850 160.027 main 1974 1974 P_____________ WP201992 12.4850 160.027 22 -1 11 304
1992263N05175 1992 91 WP MM VAL 1992-09-23 00:00:00 NR 12.8000 159.600 main 1983 1983 O_____________ jtwc_wp WP201992 12.8000 159.600 25 -1 10 314
1992263N05175 1992 91 WP MM VAL 1992-09-23 03:00:00 NR 13.1849 159.277 main 2008 2003 P_____________ WP201992 13.1849 159.277 25 -1 10 324
1992263N05175 1992 91 WP MM VAL 1992-09-23 06:00:00 NR 13.6000 159.000 main 2033 2033 O_____________ jtwc_wp WP201992 13.6000 159.000 25 -1 10 325
1992263N05175 1992 91 WP MM VAL 1992-09-23 09:00:00 NR 13.9925 158.692 main 2059 2059 P_____________ WP201992 13.9925 158.692 25 -1 10 324
1992263N05175 1992 91 WP MM VAL 1992-09-23 12:00:00 NR 14.4000 158.400 main 2086 2086 O_____________ jtwc_wp WP201992 14.4000 158.400 25 -1 10 328
1992263N05175 1992 91 WP MM VAL 1992-09-23 15:00:00 NR 14.8424 158.142 main 2115 2115 P_____________ WP201992 14.8424 158.142 25 -1 10 332
1992263N05175 1992 91 WP MM VAL 1992-09-23 18:00:00 NR 15.3000 157.900 main 2158 2158 O_____________ jtwc_wp WP201992 15.3000 157.900 25 -1 10 331
1992263N05175 1992 91 WP MM VAL 1992-09-23 21:00:00 NR 15.7425 157.628 main 2189 2189 P_____________ WP201992 15.7425 157.628 25 -1 10 332
1992263N05175 1992 91 WP MM VAL 1992-09-24 00:00:00 NR 16.2000 157.400 main 2234 2234 O_____________ jtwc_wp WP201992 16.2000 157.400 25 -1 10 340
1992263N05175 1992 91 WP MM VAL 1992-09-24 03:00:00 NR 16.6925 157.270 main 2284 2284 P_____________ WP201992 16.6925 157.270 27 -1 11 337
1992263N05175 1992 91 WP MM VAL 1992-09-24 06:00:00 TS 17.2333 156.950 1002 tokyo main 2327 2327 OO_O__________ jtwc_wp WP201992 17.2000 157.200 30 -1 16.5000 156.500 2 1002 0 0 0 18.1000 156.400 TD 25 995 11 339
1992263N05175 1992 91 WP MM VAL 1992-09-24 09:00:00 TS 17.7363 156.846 main 2374 2374 PP_P__________ WP201992 17.7000 157.150 30 -1 17.0052 156.787 2 1002 0 0 18.5400 156.295 TD 25 995 10 352
1992263N05175 1992 91 WP MM VAL 1992-09-24 12:00:00 TS 18.2300 156.800 1002 tokyo main 2428 2428 OO_O__________ jtwc_wp WP201992 18.2000 157.100 30 -1 17.5000 157.000 2 1002 0 0 0 19.0000 156.200 TD 25 995 10 354
1992263N05175 1992 91 WP MM VAL 1992-09-24 15:00:00 TS 18.7258 156.737 main 2442 2391 PP_P__________ WP201992 18.7000 157.022 32 -1 17.9849 157.075 2 1002 0 0 19.4925 156.115 TD 27 995 10 351
1992263N05175 1992 91 WP MM VAL 1992-09-24 18:00:00 TS 19.2333 156.633 1002 tokyo main 2391 2341 OO_O__________ jtwc_wp WP201992 19.2000 156.900 35 0 18.5000 157.000 2 1002 0 0 0 20.0000 156.000 TD 30 995 10 345
1992263N05175 1992 91 WP MM VAL 1992-09-24 21:00:00 TS 19.7341 156.459 main 2341 2269 PP_P__________ WP201992 19.6699 156.745 35 0 19.0325 156.802 2 1001 0 0 20.5000 155.830 TD 30 995 11 339
1992263N05175 1992 91 WP MM VAL 1992-09-25 00:00:00 TS 20.3000 156.200 1000 tokyo main 2269 2189 OO_O__________ jtwc_wp WP201992 20.2000 156.500 35 0 19.7000 156.500 2 1000 0 0 0 21.0000 155.600 TD 30 995 14 337
1992263N05175 1992 91 WP MM VAL 1992-09-25 03:00:00 TS 21.0091 155.887 main 2189 2103 PP_P__________ WP201992 20.8775 156.138 37 0 20.6574 156.188 2 999 0 0 21.4924 155.337 TD 30 995 16 335
1992263N05175 1992 91 WP MM VAL 1992-09-25 06:00:00 TS 21.7333 155.500 35 998 tokyo main 2103 2033 OO_O__________ jtwc_wp WP201992 21.6000 155.700 40 0 21.6000 155.800 3 35 998 0 9 100 100 0 22.0000 155.000 TD 30 995 15 329
1992263N05175 1992 91 WP MM VAL 1992-09-25 09:00:00 TS 22.2467 155.087 main 2033 1956 PP_P__________ WP201992 22.2499 155.264 42 0 22.1574 155.336 3 37 997 0 9 150 150 22.5202 154.550 TD 32 992 13 325
1992263N05175 1992 91 WP MM VAL 1992-09-25 12:00:00 TS 22.8286 154.671 40 996 tokyo main 1956 1864 OOOO__________ jtwc_wp WP201992 22.9000 154.800 45 0 22.7000 154.800 3 40 996 0 9 200 200 0 22.4000 155.300 2 38 990 23.1000 154.100 TS 35 990 16 329
1992263N05175 1992 91 WP MM VAL 1992-09-25 15:00:00 TS 23.5816 154.200 main 1855 1762 PPPP__________ WP201992 23.5926 154.285 47 0 23.5630 154.149 3 42 994 0 9 200 200 23.3632 154.669 2 38 990 23.7624 153.755 TS 37 990 18 332
1992263N05175 1992 91 WP MM VAL 1992-09-25 18:00:00 TS 24.4000 153.750 45 992 tokyo main 1762 1685 OOOO__________ jtwc_wp WP201992 24.3000 153.800 50 0 24.5000 153.600 3 45 992 0 9 200 200 0 24.3000 154.100 2 38 990 24.5000 153.500 TS 40 990 18 337
1992263N05175 1992 91 WP MM VAL 1992-09-25 21:00:00 TS 25.1872 153.451 main 1677 1600 PPPP__________ WP201992 24.9772 153.427 52 0 25.3145 153.388 3 45 992 0 9 200 200 25.1872 153.647 2 43 987 25.2699 153.342 TS 42 987 17 343
1992263N05175 1992 91 WP MM VAL 1992-09-26 00:00:00 TS 25.9750 153.225 45 992 tokyo main 1592 1523 OOOO__________ jtwc_wp WP201992 25.7000 153.100 55 0 26.1000 153.300 3 45 992 0 9 200 200 0 26.0000 153.300 3 48 985 26.1000 153.200 TS 45 985 16 345
1992263N05175 1992 91 WP MM VAL 1992-09-26 03:00:00 TS 26.7667 152.984 main 1515 1433 PPPP__________ WP201992 26.5200 152.742 55 0 26.8998 153.137 3 45 992 0 9 180 180 26.6772 153.048 3 48 985 26.9697 153.009 TS 42 987 17 344
1992263N05175 1992 91 WP MM VAL 1992-09-26 06:00:00 TS 27.6000 152.700 45 992 tokyo main 1433 1352 OOOO__________ jtwc_wp WP201992 27.4000 152.400 55 0 27.7000 152.900 3 45 992 0 9 160 160 0 27.4000 152.800 3 48 985 27.9000 152.700 TS 40 990 18 341
1992263N05175 1992 91 WP MM VAL 1992-09-26 09:00:00 TS 28.4799 152.328 main 1337 1244 PPPP__________ WP201992 28.2549 152.099 52 0 28.4397 152.573 3 45 991 0 9 160 160 28.3325 152.437 3 48 985 28.8926 152.203 TS 40 990 20 339
1992263N05175 1992 91 WP MM VAL 1992-09-26 12:00:00 TS 29.4500 151.875 45 990 tokyo main 1238 1134 OOOO__________ jtwc_wp WP201992 29.2000 151.800 50 0 29.3000 152.100 3 45 990 0 9 160 160 0 29.4000 152.000 3 48 985 29.9000 151.600 TS 40 990 23 338
1992263N05175 1992 91 WP MM VAL 1992-09-26 15:00:00 TS 30.5533 151.347 main 1120 1029 PPPP__________ WP201992 30.3125 151.464 47 0 30.4933 151.411 3 45 990 0 9 160 160 30.5647 151.537 3 48 987 30.8427 150.977 TS 37 990 24 338
1992263N05175 1992 91 WP MM VAL 1992-09-26 18:00:00 TS 31.6667 150.827 45 990 tokyo main 1016 929 OOOO__________ jtwc_wp WP201992 31.5000 151.100 45 0 31.7000 150.700 3 45 990 0 9 160 160 0 31.7000 151.000 3 48 990 31.8000 150.400 TS 35 990 23 336
1992263N05175 1992 91 WP MM VAL 1992-09-26 21:00:00 TS 32.6306 150.260 main 929 857 PPPP__________ WP201992 32.6428 150.642 42 0 32.5571 150.079 3 45 990 0 9 200 200 32.5935 150.212 3 43 990 32.8274 149.959 TS 35 990 21 338
1992263N05175 1992 91 WP MM VAL 1992-09-27 00:00:00 TS 33.5923 149.908 45 990 tokyo main 853 827 OOOO__________ jtwc_wp WP201992 33.8000 150.300 40 0 33.4000 149.800 3 45 990 0 9 240 240 0 33.5000 149.700 2 38 990 33.9000 149.600 TS 35 990 21 354
1992263N05175 1992 91 WP MM VAL 1992-09-27 03:00:00 TS 34.7079 149.993 main 832 828 PPP___________ WP201992 35.0058 150.136 40 0 34.4730 149.991 3 45 990 0 9 240 240 34.6451 149.852 2 38 990 TS 24 13
1992263N05175 1992 91 WP MM VAL 1992-09-27 06:00:00 TS 35.9333 150.567 45 990 tokyo main 846 840 OOO___________ jtwc_wp WP201992 36.2000 150.400 40 0 35.7000 150.700 3 45 990 0 9 240 240 0 35.9000 150.600 2 38 990 27 29
1992263N05175 1992 91 WP MM VAL 1992-09-27 09:00:00 TS 37.0829 151.634 main 852 829 PPP___________ WP201992 37.3084 151.269 40 0 36.9162 151.842 3 45 990 0 9 260 240 37.0241 151.793 2 38 992 32 39
1992263N05175 1992 91 WP MM VAL 1992-09-27 12:00:00 MX 38.4000 153.082 45 990 tokyo main 831 729 OOO___________ jtwc_wp WP201992 38.4000 152.500 40 0 38.4000 153.300 3 45 990 0 1 280 240 0 38.4000 153.300 9 38 995 39 37
1992263N05175 1992 91 WP MM VAL 1992-09-27 15:00:00 MX 40.2161 154.694 main 724 631 PPP___________ WP201992 39.5364 153.753 42 0 40.3937 154.926 3 990 0 1 40.3784 154.933 9 38 992 46 32
1992263N05175 1992 91 WP MM VAL 1992-09-27 18:00:00 ET 42.3000 156.244 990 tokyo main 623 566 OOO___________ jtwc_wp WP201992 40.7000 155.000 45 0 42.5000 156.400 6 990 0 0 0 42.5000 156.400 9 38 990 46 24
1992263N05175 1992 91 WP MM VAL 1992-09-27 21:00:00 ET 44.4032 157.269 main 569 488 _PP___________ WP201992 -1 44.4032 157.269 6 987 0 0 44.4032 157.269 9 38 987 39 17
1992263N05175 1992 91 WP MM VAL 1992-09-28 00:00:00 ET 46.0000 157.800 984 tokyo main 478 391 _OO___________ -1 46.0000 157.800 6 984 0 0 0 46.0000 157.800 9 38 984 28 15
1992263N05175 1992 91 WP MM VAL 1992-09-28 03:00:00 ET 47.0947 158.304 main 385 326 _PP___________ -1 47.0736 158.310 6 982 0 0 47.1369 158.292 9 43 982 21 19
1992263N05175 1992 91 WP MM VAL 1992-09-28 06:00:00 ET 48.0000 158.800 980 tokyo main 322 269 _OO___________ -1 48.0000 158.800 6 980 0 0 0 48.0000 158.800 9 48 980 23 19
1992263N05175 1992 91 WP MM VAL 1992-09-28 09:00:00 ET 49.2268 159.428 main 269 202 _P____________ -1 49.2268 159.428 6 979 0 0 9 27 20
1992263N05175 1992 91 WP MM VAL 1992-09-28 12:00:00 ET 50.5000 160.200 978 tokyo main 201 169 _O____________ -1 50.5000 160.200 6 978 0 0 0 27 24
1992263N05175 1992 91 WP MM VAL 1992-09-28 15:00:00 ET 51.7479 161.166 main 172 132 _P____________ -1 51.7479 161.166 6 976 0 0 26 28
1992263N05175 1992 91 WP MM VAL 1992-09-28 18:00:00 ET 52.8000 162.200 974 tokyo main 143 143 _O____________ -1 52.8000 162.200 6 974 0 0 0 21 34
1992263N05175 1992 91 WP MM VAL 1992-09-28 21:00:00 ET 53.4733 163.103 main 143 136 _P____________ -1 53.4733 163.103 6 973 0 0 16 42
1992263N05175 1992 91 WP MM VAL 1992-09-29 00:00:00 ET 54.0000 164.000 972 tokyo main 144 144 _O____________ -1 54.0000 164.000 6 972 0 0 0 16 43
1992263N05175 1992 91 WP MM VAL 1992-09-29 03:00:00 ET 54.6564 164.999 main 185 185 _P____________ -1 54.6564 164.999 6 971 0 0 18 43
1992263N05175 1992 91 WP MM VAL 1992-09-29 06:00:00 ET 55.3000 166.100 970 tokyo main 195 195 _O____________ -1 55.3000 166.100 6 970 0 0 0 18 46
1992263N05175 1992 91 WP MM VAL 1992-09-29 09:00:00 ET 55.9172 167.326 main 243 243 _P____________ -1 55.9172 167.326 6 970 0 0 18 52
1992263N05175 1992 91 WP MM VAL 1992-09-29 12:00:00 ET 56.4000 168.600 970 tokyo main 319 319 _O____________ -1 56.4000 168.600 6 970 0 0 0 15 60
1992263N05175 1992 91 WP MM VAL 1992-09-29 15:00:00 ET 56.6583 169.620 main 356 343 _P____________ -1 56.6583 169.620 6 971 0 0 14 73
1992263N05175 1992 91 WP MM VAL 1992-09-29 18:00:00 ET 56.8000 171.000 972 tokyo main 345 343 _O____________ -1 56.8000 171.000 6 972 0 0 0 20 82
1992263N05175 1992 91 WP MM VAL 1992-09-29 21:00:00 ET 56.9345 173.305 main 374 374 _P____________ -1 56.9345 173.305 6 972 0 0 27 86
1992263N05175 1992 91 WP MM VAL 1992-09-30 00:00:00 ET 57.0000 176.000 972 tokyo main 459 459 _O____________ -1 57.0000 176.000 6 972 0 0 0 29 88
1992263N05175 1992 91 WP MM VAL 1992-09-30 03:00:00 ET 57.0191 178.565 main 560 560 _P____________ -1 57.0191 178.565 6 973 0 0 27 90
1992263N05175 1992 91 EP CP VAL 1992-09-30 06:00:00 ET 57.0000 181.000 main 595 _O____________ -1 57.0000 181.000 6 974 0 0 0 26 91

Digital Typhoon Data and Search

About IBTrACS Database

This database is a web-friendly format of International Best Track Archive for Climate Stewardship (IBTrACS), a global best track data archive curated by NOAA dating back to 1842.

Updated: 2021-10-27